sensor_id;sensor_type;location;lat;lon;timestamp;temperature;humidity
32400;DHT22;45045;45.440;9.178;2022-12-29T00:01:52;11.80;99.90
32400;DHT22;45045;45.440;9.178;2022-12-29T00:04:18;11.80;99.90
32400;DHT22;45045;45.440;9.178;2022-12-29T00:06:44;11.90;99.90
32400;DHT22;45045;45.440;9.178;2022-12-29T00:09:13;11.90;99.90
32400;DHT22;45045;45.440;9.178;2022-12-29T00:11:40;11.90;99.90
32400;DHT22;45045;45.440;9.178;2022-12-29T00:14:09;11.80;99.90
32400;DHT22;45045;45.440;9.178;2022-12-29T00:16:54;11.90;99.90
32400;DHT22;45045;45.440;9.178;2022-12-29T00:19:20;11.90;99.90
32400;DHT22;45045;45.440;9.178;2022-12-29T00:22:05;11.90;99.90
32400;DHT22;45045;45.440;9.178;2022-12-29T00:24:49;12.00;99.90
32400;DHT22;45045;45.440;9.178;2022-12-29T00:27:31;12.00;99.90
32400;DHT22;45045;45.440;9.178;2022-12-29T00:30:20;12.00;99.90
32400;DHT22;45045;45.440;9.178;2022-12-29T00:33:10;12.00;99.90
32400;DHT22;45045;45.440;9.178;2022-12-29T00:38:51;11.90;99.90
32400;DHT22;45045;45.440;9.178;2022-12-29T00:41:36;11.90;99.90
32400;DHT22;45045;45.440;9.178;2022-12-29T00:44:21;12.00;99.90
32400;DHT22;45045;45.440;9.178;2022-12-29T00:46:46;11.90;99.90
32400;DHT22;45045;45.440;9.178;2022-12-29T00:49:13;11.90;99.90
32400;DHT22;45045;45.440;9.178;2022-12-29T00:52:04;11.90;99.90
32400;DHT22;45045;45.440;9.178;2022-12-29T00:54:35;11.90;99.90
32400;DHT22;45045;45.440;9.178;2022-12-29T00:57:02;11.90;99.90
32400;DHT22;45045;45.440;9.178;2022-12-29T00:59:28;11.90;99.90
32400;DHT22;45045;45.440;9.178;2022-12-29T01:01:54;11.90;99.90
32400;DHT22;45045;45.440;9.178;2022-12-29T01:04:22;12.00;99.90
32400;DHT22;45045;45.440;9.178;2022-12-29T01:06:48;12.00;99.90
32400;DHT22;45045;45.440;9.178;2022-12-29T01:09:14;11.90;99.90
32400;DHT22;45045;45.440;9.178;2022-12-29T01:11:58;11.90;99.90
32400;DHT22;45045;45.440;9.178;2022-12-29T01:14:24;11.80;99.90
32400;DHT22;45045;45.440;9.178;2022-12-29T01:16:50;11.90;99.90
32400;DHT22;45045;45.440;9.178;2022-12-29T01:19:17;11.90;99.90
32400;DHT22;45045;45.440;9.178;2022-12-29T01:21:43;11.90;99.90
32400;DHT22;45045;45.440;9.178;2022-12-29T01:24:09;12.00;99.90
32400;DHT22;45045;45.440;9.178;2022-12-29T01:26:35;12.00;99.90
32400;DHT22;45045;45.440;9.178;2022-12-29T01:29:01;11.80;99.90
32400;DHT22;45045;45.440;9.178;2022-12-29T01:31:26;11.70;99.90
32400;DHT22;45045;45.440;9.178;2022-12-29T01:33:52;11.70;99.90
32400;DHT22;45045;45.440;9.178;2022-12-29T01:36:18;11.70;99.90
32400;DHT22;45045;45.440;9.178;2022-12-29T01:38:44;11.70;99.90
32400;DHT22;45045;45.440;9.178;2022-12-29T01:41:13;11.70;99.90
32400;DHT22;45045;45.440;9.178;2022-12-29T01:43:45;11.70;99.90
32400;DHT22;45045;45.440;9.178;2022-12-29T01:49:21;11.70;99.90
32400;DHT22;45045;45.440;9.178;2022-12-29T01:51:52;11.80;99.90
32400;DHT22;45045;45.440;9.178;2022-12-29T01:56:58;11.70;99.90
32400;DHT22;45045;45.440;9.178;2022-12-29T01:59:32;11.70;99.90
32400;DHT22;45045;45.440;9.178;2022-12-29T02:02:00;11.70;99.90
32400;DHT22;45045;45.440;9.178;2022-12-29T02:04:27;11.60;99.90
32400;DHT22;45045;45.440;9.178;2022-12-29T02:07:03;11.80;99.90
32400;DHT22;45045;45.440;9.178;2022-12-29T02:09:30;12.80;99.90
32400;DHT22;45045;45.440;9.178;2022-12-29T02:11:57;13.40;99.90
32400;DHT22;45045;45.440;9.178;2022-12-29T02:14:23;13.80;99.90
32400;DHT22;45045;45.440;9.178;2022-12-29T02:31:11;14.80;99.90
32400;DHT22;45045;45.440;9.178;2022-12-29T02:34:10;14.90;99.90
32400;DHT22;45045;45.440;9.178;2022-12-29T02:37:06;15.10;99.90
32400;DHT22;45045;45.440;9.178;2022-12-29T02:39:41;15.10;99.90
32400;DHT22;45045;45.440;9.178;2022-12-29T02:42:36;15.20;99.90
32400;DHT22;45045;45.440;9.178;2022-12-29T02:45:23;15.30;99.90
32400;DHT22;45045;45.440;9.178;2022-12-29T02:50:39;14.00;99.90
32400;DHT22;45045;45.440;9.178;2022-12-29T02:53:15;13.30;99.90
32400;DHT22;45045;45.440;9.178;2022-12-29T02:55:51;12.80;99.90
32400;DHT22;45045;45.440;9.178;2022-12-29T02:58:22;12.50;99.90
32400;DHT22;45045;45.440;9.178;2022-12-29T03:00:58;12.30;99.90
32400;DHT22;45045;45.440;9.178;2022-12-29T03:06:57;12.10;99.90
32400;DHT22;45045;45.440;9.178;2022-12-29T03:09:52;12.00;99.90
32400;DHT22;45045;45.440;9.178;2022-12-29T03:12:31;12.00;99.90
32400;DHT22;45045;45.440;9.178;2022-12-29T03:15:25;11.90;99.90
32400;DHT22;45045;45.440;9.178;2022-12-29T03:18:25;11.80;99.90
32400;DHT22;45045;45.440;9.178;2022-12-29T03:23:22;11.70;99.90
32400;DHT22;45045;45.440;9.178;2022-12-29T03:25:51;11.80;99.90
32400;DHT22;45045;45.440;9.178;2022-12-29T03:28:22;11.80;99.90
32400;DHT22;45045;45.440;9.178;2022-12-29T03:30:49;11.80;99.90
32400;DHT22;45045;45.440;9.178;2022-12-29T03:33:21;11.80;99.90
32400;DHT22;45045;45.440;9.178;2022-12-29T03:35:49;11.80;99.90
32400;DHT22;45045;45.440;9.178;2022-12-29T03:38:36;11.80;99.90
32400;DHT22;45045;45.440;9.178;2022-12-29T03:41:08;11.70;99.90
32400;DHT22;45045;45.440;9.178;2022-12-29T03:43:44;11.80;99.90
32400;DHT22;45045;45.440;9.178;2022-12-29T03:46:13;11.80;99.90
32400;DHT22;45045;45.440;9.178;2022-12-29T03:48:39;11.80;99.90
32400;DHT22;45045;45.440;9.178;2022-12-29T03:51:05;11.80;99.90
32400;DHT22;45045;45.440;9.178;2022-12-29T03:53:30;11.80;99.90
32400;DHT22;45045;45.440;9.178;2022-12-29T03:55:56;11.70;99.90
32400;DHT22;45045;45.440;9.178;2022-12-29T03:58:22;11.70;99.90
32400;DHT22;45045;45.440;9.178;2022-12-29T04:00:47;11.70;99.90
32400;DHT22;45045;45.440;9.178;2022-12-29T04:03:13;11.70;99.90
32400;DHT22;45045;45.440;9.178;2022-12-29T04:05:38;11.70;99.90
32400;DHT22;45045;45.440;9.178;2022-12-29T04:08:04;11.70;99.90
32400;DHT22;45045;45.440;9.178;2022-12-29T04:10:30;11.70;99.90
32400;DHT22;45045;45.440;9.178;2022-12-29T04:12:55;11.60;99.90
32400;DHT22;45045;45.440;9.178;2022-12-29T04:15:21;11.60;99.90
32400;DHT22;45045;45.440;9.178;2022-12-29T04:17:48;11.60;99.90
32400;DHT22;45045;45.440;9.178;2022-12-29T04:20:14;11.60;99.90
32400;DHT22;45045;45.440;9.178;2022-12-29T04:23:02;11.60;99.90
32400;DHT22;45045;45.440;9.178;2022-12-29T04:25:28;11.60;99.90
32400;DHT22;45045;45.440;9.178;2022-12-29T04:27:55;11.60;99.90
32400;DHT22;45045;45.440;9.178;2022-12-29T04:30:21;11.70;99.90
32400;DHT22;45045;45.440;9.178;2022-12-29T04:32:46;11.60;99.90
32400;DHT22;45045;45.440;9.178;2022-12-29T04:35:12;11.70;99.90
32400;DHT22;45045;45.440;9.178;2022-12-29T04:37:38;11.60;99.90
32400;DHT22;45045;45.440;9.178;2022-12-29T04:40:07;11.60;99.90
32400;DHT22;45045;45.440;9.178;2022-12-29T04:42:32;11.60;99.90
32400;DHT22;45045;45.440;9.178;2022-12-29T04:44:58;11.60;99.90
32400;DHT22;45045;45.440;9.178;2022-12-29T04:47:24;11.60;99.90
32400;DHT22;45045;45.440;9.178;2022-12-29T04:49:49;11.60;99.90
32400;DHT22;45045;45.440;9.178;2022-12-29T04:52:15;11.60;99.90
32400;DHT22;45045;45.440;9.178;2022-12-29T04:54:40;11.60;99.90
32400;DHT22;45045;45.440;9.178;2022-12-29T04:57:06;11.50;99.90
32400;DHT22;45045;45.440;9.178;2022-12-29T04:59:32;11.50;99.90
32400;DHT22;45045;45.440;9.178;2022-12-29T05:01:57;11.50;99.90
32400;DHT22;45045;45.440;9.178;2022-12-29T05:04:23;11.50;99.90
32400;DHT22;45045;45.440;9.178;2022-12-29T05:06:49;11.50;99.90
32400;DHT22;45045;45.440;9.178;2022-12-29T05:09:14;11.50;99.90
32400;DHT22;45045;45.440;9.178;2022-12-29T05:11:40;11.50;99.90
32400;DHT22;45045;45.440;9.178;2022-12-29T05:14:05;11.50;99.90
32400;DHT22;45045;45.440;9.178;2022-12-29T05:16:31;11.50;99.90
32400;DHT22;45045;45.440;9.178;2022-12-29T05:18:57;11.50;99.90
32400;DHT22;45045;45.440;9.178;2022-12-29T05:21:22;11.50;99.90
32400;DHT22;45045;45.440;9.178;2022-12-29T05:23:48;11.50;99.90
32400;DHT22;45045;45.440;9.178;2022-12-29T05:26:14;11.50;99.90
32400;DHT22;45045;45.440;9.178;2022-12-29T05:28:39;11.50;99.90
32400;DHT22;45045;45.440;9.178;2022-12-29T05:31:05;11.50;99.90
32400;DHT22;45045;45.440;9.178;2022-12-29T05:33:31;11.50;99.90
32400;DHT22;45045;45.440;9.178;2022-12-29T05:35:56;11.50;99.90
32400;DHT22;45045;45.440;9.178;2022-12-29T05:38:22;11.50;99.90
32400;DHT22;45045;45.440;9.178;2022-12-29T05:40:48;11.50;99.90
32400;DHT22;45045;45.440;9.178;2022-12-29T05:43:14;11.50;99.90
32400;DHT22;45045;45.440;9.178;2022-12-29T05:45:39;11.40;99.90
32400;DHT22;45045;45.440;9.178;2022-12-29T05:48:05;11.50;99.90
32400;DHT22;45045;45.440;9.178;2022-12-29T05:50:31;11.40;99.90
32400;DHT22;45045;45.440;9.178;2022-12-29T05:52:56;11.40;99.90
32400;DHT22;45045;45.440;9.178;2022-12-29T05:55:22;11.40;99.90
32400;DHT22;45045;45.440;9.178;2022-12-29T05:57:47;11.40;99.90
32400;DHT22;45045;45.440;9.178;2022-12-29T06:00:13;11.40;99.90
32400;DHT22;45045;45.440;9.178;2022-12-29T06:02:39;11.40;99.90
32400;DHT22;45045;45.440;9.178;2022-12-29T06:05:05;11.30;99.90
32400;DHT22;45045;45.440;9.178;2022-12-29T06:07:31;11.30;99.90
32400;DHT22;45045;45.440;9.178;2022-12-29T06:09:56;11.30;99.90
32400;DHT22;45045;45.440;9.178;2022-12-29T06:12:22;11.30;99.90
32400;DHT22;45045;45.440;9.178;2022-12-29T06:14:47;11.30;99.90
32400;DHT22;45045;45.440;9.178;2022-12-29T06:17:13;11.30;99.90
32400;DHT22;45045;45.440;9.178;2022-12-29T06:19:39;11.30;99.90
32400;DHT22;45045;45.440;9.178;2022-12-29T06:22:04;11.30;99.90
32400;DHT22;45045;45.440;9.178;2022-12-29T06:24:30;11.30;99.90
32400;DHT22;45045;45.440;9.178;2022-12-29T06:26:56;11.20;99.90
32400;DHT22;45045;45.440;9.178;2022-12-29T06:29:21;11.20;99.90
32400;DHT22;45045;45.440;9.178;2022-12-29T06:31:47;11.30;99.90
32400;DHT22;45045;45.440;9.178;2022-12-29T06:34:14;11.30;99.90
32400;DHT22;45045;45.440;9.178;2022-12-29T06:36:40;11.30;99.90
32400;DHT22;45045;45.440;9.178;2022-12-29T06:39:05;11.30;99.90
32400;DHT22;45045;45.440;9.178;2022-12-29T06:41:31;11.30;99.90
32400;DHT22;45045;45.440;9.178;2022-12-29T06:43:57;11.30;99.90
32400;DHT22;45045;45.440;9.178;2022-12-29T06:46:23;11.30;99.90
32400;DHT22;45045;45.440;9.178;2022-12-29T06:48:49;11.30;99.90
32400;DHT22;45045;45.440;9.178;2022-12-29T06:51:14;11.30;99.90
32400;DHT22;45045;45.440;9.178;2022-12-29T06:53:40;11.20;99.90
32400;DHT22;45045;45.440;9.178;2022-12-29T06:56:06;11.20;99.90
32400;DHT22;45045;45.440;9.178;2022-12-29T06:58:32;11.30;99.90
32400;DHT22;45045;45.440;9.178;2022-12-29T07:00:57;11.30;99.90
32400;DHT22;45045;45.440;9.178;2022-12-29T07:03:23;11.30;99.90
32400;DHT22;45045;45.440;9.178;2022-12-29T07:05:48;11.30;99.90
32400;DHT22;45045;45.440;9.178;2022-12-29T07:08:14;11.30;99.90
32400;DHT22;45045;45.440;9.178;2022-12-29T07:10:40;11.30;99.90
32400;DHT22;45045;45.440;9.178;2022-12-29T07:13:05;11.30;99.90
32400;DHT22;45045;45.440;9.178;2022-12-29T07:15:34;11.40;99.90
32400;DHT22;45045;45.440;9.178;2022-12-29T07:17:59;11.40;99.90
32400;DHT22;45045;45.440;9.178;2022-12-29T07:20:25;11.40;99.90
32400;DHT22;45045;45.440;9.178;2022-12-29T07:22:57;11.40;99.90
32400;DHT22;45045;45.440;9.178;2022-12-29T07:25:25;11.50;99.90
32400;DHT22;45045;45.440;9.178;2022-12-29T07:27:51;11.50;99.90
32400;DHT22;45045;45.440;9.178;2022-12-29T07:30:17;11.50;99.90
32400;DHT22;45045;45.440;9.178;2022-12-29T07:32:42;11.40;99.90
32400;DHT22;45045;45.440;9.178;2022-12-29T07:35:08;11.40;99.90
32400;DHT22;45045;45.440;9.178;2022-12-29T07:37:37;11.40;99.90
32400;DHT22;45045;45.440;9.178;2022-12-29T07:40:04;11.50;99.90
32400;DHT22;45045;45.440;9.178;2022-12-29T07:42:30;11.50;99.90
32400;DHT22;45045;45.440;9.178;2022-12-29T07:44:56;11.50;99.90
32400;DHT22;45045;45.440;9.178;2022-12-29T07:47:22;11.60;99.90
32400;DHT22;45045;45.440;9.178;2022-12-29T07:49:47;11.70;99.90
32400;DHT22;45045;45.440;9.178;2022-12-29T07:52:13;11.70;99.90
32400;DHT22;45045;45.440;9.178;2022-12-29T07:54:39;11.80;99.90
32400;DHT22;45045;45.440;9.178;2022-12-29T07:57:05;11.80;99.90
32400;DHT22;45045;45.440;9.178;2022-12-29T07:59:31;11.80;99.90
32400;DHT22;45045;45.440;9.178;2022-12-29T08:01:57;11.90;99.90
32400;DHT22;45045;45.440;9.178;2022-12-29T08:04:22;11.90;99.90
32400;DHT22;45045;45.440;9.178;2022-12-29T08:06:48;11.90;99.90
32400;DHT22;45045;45.440;9.178;2022-12-29T08:09:14;11.90;99.90
32400;DHT22;45045;45.440;9.178;2022-12-29T08:11:39;11.90;99.90
32400;DHT22;45045;45.440;9.178;2022-12-29T08:14:05;11.70;99.90
32400;DHT22;45045;45.440;9.178;2022-12-29T08:16:31;11.70;99.90
32400;DHT22;45045;45.440;9.178;2022-12-29T08:18:57;11.70;99.90
32400;DHT22;45045;45.440;9.178;2022-12-29T08:21:24;11.70;99.90
32400;DHT22;45045;45.440;9.178;2022-12-29T08:23:50;11.80;99.90
32400;DHT22;45045;45.440;9.178;2022-12-29T08:26:16;11.60;99.90
32400;DHT22;45045;45.440;9.178;2022-12-29T08:28:42;11.50;99.90
32400;DHT22;45045;45.440;9.178;2022-12-29T08:31:19;11.40;99.90
32400;DHT22;45045;45.440;9.178;2022-12-29T08:33:45;11.40;99.90
32400;DHT22;45045;45.440;9.178;2022-12-29T08:36:23;11.40;99.90
32400;DHT22;45045;45.440;9.178;2022-12-29T08:39:00;11.40;99.90
32400;DHT22;45045;45.440;9.178;2022-12-29T08:41:26;11.40;99.90
32400;DHT22;45045;45.440;9.178;2022-12-29T08:44:11;11.30;99.90
32400;DHT22;45045;45.440;9.178;2022-12-29T08:46:37;11.40;99.90
32400;DHT22;45045;45.440;9.178;2022-12-29T08:49:03;11.40;99.90
32400;DHT22;45045;45.440;9.178;2022-12-29T08:51:46;11.50;99.90
32400;DHT22;45045;45.440;9.178;2022-12-29T08:54:12;11.50;99.90
32400;DHT22;45045;45.440;9.178;2022-12-29T08:56:44;11.50;99.90
32400;DHT22;45045;45.440;9.178;2022-12-29T08:59:10;11.50;99.90
32400;DHT22;45045;45.440;9.178;2022-12-29T09:01:54;11.50;99.90
32400;DHT22;45045;45.440;9.178;2022-12-29T09:04:21;11.60;99.90
32400;DHT22;45045;45.440;9.178;2022-12-29T09:06:57;11.60;99.90
32400;DHT22;45045;45.440;9.178;2022-12-29T09:09:23;11.60;99.90
32400;DHT22;45045;45.440;9.178;2022-12-29T09:11:49;11.50;99.90
32400;DHT22;45045;45.440;9.178;2022-12-29T09:14:14;11.50;99.90
32400;DHT22;45045;45.440;9.178;2022-12-29T09:20:03;11.60;99.90
32400;DHT22;45045;45.440;9.178;2022-12-29T09:22:29;11.70;99.90
32400;DHT22;45045;45.440;9.178;2022-12-29T09:25:11;11.80;99.90
32400;DHT22;45045;45.440;9.178;2022-12-29T09:27:59;11.90;99.90
32400;DHT22;45045;45.440;9.178;2022-12-29T09:30:28;11.90;99.90
32400;DHT22;45045;45.440;9.178;2022-12-29T09:32:53;11.80;99.90
32400;DHT22;45045;45.440;9.178;2022-12-29T09:35:19;11.80;99.90
32400;DHT22;45045;45.440;9.178;2022-12-29T09:37:45;11.80;99.90
32400;DHT22;45045;45.440;9.178;2022-12-29T09:40:24;11.80;99.90
32400;DHT22;45045;45.440;9.178;2022-12-29T09:45:50;11.90;99.90
32400;DHT22;45045;45.440;9.178;2022-12-29T09:48:25;11.90;99.90
32400;DHT22;45045;45.440;9.178;2022-12-29T09:51:14;11.90;99.90
32400;DHT22;45045;45.440;9.178;2022-12-29T09:57:25;12.00;99.90
32400;DHT22;45045;45.440;9.178;2022-12-29T10:03:20;12.00;99.90
32400;DHT22;45045;45.440;9.178;2022-12-29T10:06:12;12.00;99.90
32400;DHT22;45045;45.440;9.178;2022-12-29T10:08:50;12.10;99.90
32400;DHT22;45045;45.440;9.178;2022-12-29T10:24:34;12.60;99.90
32400;DHT22;45045;45.440;9.178;2022-12-29T10:27:03;12.70;99.90
32400;DHT22;45045;45.440;9.178;2022-12-29T10:29:37;12.70;99.90
32400;DHT22;45045;45.440;9.178;2022-12-29T10:32:09;12.70;99.90
32400;DHT22;45045;45.440;9.178;2022-12-29T10:34:38;12.70;99.90
32400;DHT22;45045;45.440;9.178;2022-12-29T10:37:34;12.70;99.90
32400;DHT22;45045;45.440;9.178;2022-12-29T10:40:18;12.70;99.90
32400;DHT22;45045;45.440;9.178;2022-12-29T10:42:53;12.60;99.90
32400;DHT22;45045;45.440;9.178;2022-12-29T10:45:30;12.60;99.90
32400;DHT22;45045;45.440;9.178;2022-12-29T10:48:05;12.80;99.90
32400;DHT22;45045;45.440;9.178;2022-12-29T10:50:31;13.00;99.90
32400;DHT22;45045;45.440;9.178;2022-12-29T10:53:02;13.00;99.90
32400;DHT22;45045;45.440;9.178;2022-12-29T10:55:35;13.10;99.90
32400;DHT22;45045;45.440;9.178;2022-12-29T10:58:05;13.10;99.90
32400;DHT22;45045;45.440;9.178;2022-12-29T11:00:32;13.40;99.90
32400;DHT22;45045;45.440;9.178;2022-12-29T11:08:28;13.50;99.90
32400;DHT22;45045;45.440;9.178;2022-12-29T11:11:02;13.30;99.90
32400;DHT22;45045;45.440;9.178;2022-12-29T11:17:03;14.40;99.90
32400;DHT22;45045;45.440;9.178;2022-12-29T11:19:31;14.80;99.90
32400;DHT22;45045;45.440;9.178;2022-12-29T11:22:24;14.70;99.90
32400;DHT22;45045;45.440;9.178;2022-12-29T11:25:05;14.90;99.90
32400;DHT22;45045;45.440;9.178;2022-12-29T11:27:31;15.10;99.90
32400;DHT22;45045;45.440;9.178;2022-12-29T11:29:58;15.10;99.90
32400;DHT22;45045;45.440;9.178;2022-12-29T11:32:26;14.70;99.90
32400;DHT22;45045;45.440;9.178;2022-12-29T11:35:17;14.60;99.90
32400;DHT22;45045;45.440;9.178;2022-12-29T11:37:44;14.30;99.90
32400;DHT22;45045;45.440;9.178;2022-12-29T11:40:21;14.10;99.90
32400;DHT22;45045;45.440;9.178;2022-12-29T11:43:02;13.90;99.90
32400;DHT22;45045;45.440;9.178;2022-12-29T11:45:34;14.10;99.90
32400;DHT22;45045;45.440;9.178;2022-12-29T11:48:13;14.20;99.90
32400;DHT22;45045;45.440;9.178;2022-12-29T11:50:53;14.00;99.90
32400;DHT22;45045;45.440;9.178;2022-12-29T11:53:26;14.40;99.90
32400;DHT22;45045;45.440;9.178;2022-12-29T11:56:02;14.30;99.90
32400;DHT22;45045;45.440;9.178;2022-12-29T11:58:31;13.70;99.90
32400;DHT22;45045;45.440;9.178;2022-12-29T12:01:05;14.00;99.90
32400;DHT22;45045;45.440;9.178;2022-12-29T12:03:38;14.10;99.90
32400;DHT22;45045;45.440;9.178;2022-12-29T12:06:07;14.00;99.90
32400;DHT22;45045;45.440;9.178;2022-12-29T12:08:59;13.70;99.90
32400;DHT22;45045;45.440;9.178;2022-12-29T12:11:36;13.70;99.90
32400;DHT22;45045;45.440;9.178;2022-12-29T12:14:35;14.20;99.90
32400;DHT22;45045;45.440;9.178;2022-12-29T12:17:38;14.70;99.90
32400;DHT22;45045;45.440;9.178;2022-12-29T12:23:17;15.30;99.90
32400;DHT22;45045;45.440;9.178;2022-12-29T12:28:47;14.60;99.90
32400;DHT22;45045;45.440;9.178;2022-12-29T12:31:27;14.70;99.90
32400;DHT22;45045;45.440;9.178;2022-12-29T12:34:02;14.90;99.90
32400;DHT22;45045;45.440;9.178;2022-12-29T12:39:46;14.80;99.90
32400;DHT22;45045;45.440;9.178;2022-12-29T12:42:22;15.10;99.90
32400;DHT22;45045;45.440;9.178;2022-12-29T12:55:52;14.60;99.90
32400;DHT22;45045;45.440;9.178;2022-12-29T12:58:52;14.10;99.90
32400;DHT22;45045;45.440;9.178;2022-12-29T13:07:50;14.80;99.90
32400;DHT22;45045;45.440;9.178;2022-12-29T13:10:12;14.60;99.90
32400;DHT22;45045;45.440;9.178;2022-12-29T13:27:15;14.90;99.90
32400;DHT22;45045;45.440;9.178;2022-12-29T13:35:40;14.90;99.90
32400;DHT22;45045;45.440;9.178;2022-12-29T13:38:42;14.90;99.90
32400;DHT22;45045;45.440;9.178;2022-12-29T13:41:18;15.10;99.90
32400;DHT22;45045;45.440;9.178;2022-12-29T13:43:49;15.40;99.90
32400;DHT22;45045;45.440;9.178;2022-12-29T13:46:25;15.30;99.90
32400;DHT22;45045;45.440;9.178;2022-12-29T13:49:08;14.80;99.90
32400;DHT22;45045;45.440;9.178;2022-12-29T13:51:37;14.60;99.90
32400;DHT22;45045;45.440;9.178;2022-12-29T13:54:32;14.80;99.90
32400;DHT22;45045;45.440;9.178;2022-12-29T13:57:31;15.00;99.90
32400;DHT22;45045;45.440;9.178;2022-12-29T14:00:18;15.30;99.90
32400;DHT22;45045;45.440;9.178;2022-12-29T14:07:56;14.90;99.90
32400;DHT22;45045;45.440;9.178;2022-12-29T14:10:35;14.60;99.90
32400;DHT22;45045;45.440;9.178;2022-12-29T14:13:16;14.90;99.90
32400;DHT22;45045;45.440;9.178;2022-12-29T14:15:45;15.20;99.90
32400;DHT22;45045;45.440;9.178;2022-12-29T14:18:15;14.40;99.90
32400;DHT22;45045;45.440;9.178;2022-12-29T14:21:07;14.10;99.90
32400;DHT22;45045;45.440;9.178;2022-12-29T14:28:33;13.90;99.90
32400;DHT22;45045;45.440;9.178;2022-12-29T14:33:36;13.60;99.90
32400;DHT22;45045;45.440;9.178;2022-12-29T14:43:14;13.00;99.90
32400;DHT22;45045;45.440;9.178;2022-12-29T14:45:52;13.00;99.90
32400;DHT22;45045;45.440;9.178;2022-12-29T14:48:32;13.10;99.90
32400;DHT22;45045;45.440;9.178;2022-12-29T14:51:00;13.10;99.90
32400;DHT22;45045;45.440;9.178;2022-12-29T14:54:07;13.10;99.90
32400;DHT22;45045;45.440;9.178;2022-12-29T14:56:47;13.00;99.90
32400;DHT22;45045;45.440;9.178;2022-12-29T14:59:34;12.90;99.90
32400;DHT22;45045;45.440;9.178;2022-12-29T15:02:04;12.80;99.90
32400;DHT22;45045;45.440;9.178;2022-12-29T15:04:35;12.80;99.90
32400;DHT22;45045;45.440;9.178;2022-12-29T15:07:02;12.80;99.90
32400;DHT22;45045;45.440;9.178;2022-12-29T15:09:47;12.80;99.90
32400;DHT22;45045;45.440;9.178;2022-12-29T15:12:38;12.80;99.90
32400;DHT22;45045;45.440;9.178;2022-12-29T15:15:25;12.60;99.90
32400;DHT22;45045;45.440;9.178;2022-12-29T15:17:55;12.60;99.90
32400;DHT22;45045;45.440;9.178;2022-12-29T15:20:28;12.60;99.90
32400;DHT22;45045;45.440;9.178;2022-12-29T15:23:02;12.50;99.90
32400;DHT22;45045;45.440;9.178;2022-12-29T15:28:48;12.40;99.90
32400;DHT22;45045;45.440;9.178;2022-12-29T15:31:22;12.50;99.90
32400;DHT22;45045;45.440;9.178;2022-12-29T15:34:01;12.50;99.90
32400;DHT22;45045;45.440;9.178;2022-12-29T15:36:29;12.50;99.90
32400;DHT22;45045;45.440;9.178;2022-12-29T15:39:30;13.10;99.90
32400;DHT22;45045;45.440;9.178;2022-12-29T15:41:59;14.00;99.90
32400;DHT22;45045;45.440;9.178;2022-12-29T15:44:44;14.60;99.90
32400;DHT22;45045;45.440;9.178;2022-12-29T15:47:25;15.00;99.90
32400;DHT22;45045;45.440;9.178;2022-12-29T15:50:01;15.20;99.90
32400;DHT22;45045;45.440;9.178;2022-12-29T15:52:29;14.60;99.90
32400;DHT22;45045;45.440;9.178;2022-12-29T15:54:58;14.00;99.90
32400;DHT22;45045;45.440;9.178;2022-12-29T15:57:27;13.60;99.90
32400;DHT22;45045;45.440;9.178;2022-12-29T15:59:53;13.40;99.90
32400;DHT22;45045;45.440;9.178;2022-12-29T16:02:23;13.30;99.90
32400;DHT22;45045;45.440;9.178;2022-12-29T16:04:49;13.10;99.90
32400;DHT22;45045;45.440;9.178;2022-12-29T16:07:32;13.00;99.90
32400;DHT22;45045;45.440;9.178;2022-12-29T16:10:01;12.90;99.90
32400;DHT22;45045;45.440;9.178;2022-12-29T16:12:32;12.80;99.90
32400;DHT22;45045;45.440;9.178;2022-12-29T16:15:03;12.80;99.90
32400;DHT22;45045;45.440;9.178;2022-12-29T16:17:35;12.80;99.90
32400;DHT22;45045;45.440;9.178;2022-12-29T16:20:40;12.80;99.90
32400;DHT22;45045;45.440;9.178;2022-12-29T16:23:22;12.80;99.90
32400;DHT22;45045;45.440;9.178;2022-12-29T16:25:49;12.80;99.90
32400;DHT22;45045;45.440;9.178;2022-12-29T16:28:21;12.80;99.90
32400;DHT22;45045;45.440;9.178;2022-12-29T16:31:04;12.80;99.90
32400;DHT22;45045;45.440;9.178;2022-12-29T16:33:51;12.70;99.90
32400;DHT22;45045;45.440;9.178;2022-12-29T16:36:58;12.70;99.90
32400;DHT22;45045;45.440;9.178;2022-12-29T16:39:28;12.70;99.90
32400;DHT22;45045;45.440;9.178;2022-12-29T18:19:22;12.10;99.90
32400;DHT22;45045;45.440;9.178;2022-12-29T18:21:48;12.20;99.90
32400;DHT22;45045;45.440;9.178;2022-12-29T18:24:14;12.10;99.90
32400;DHT22;45045;45.440;9.178;2022-12-29T18:26:39;12.10;99.90
32400;DHT22;45045;45.440;9.178;2022-12-29T18:29:05;12.10;99.90
32400;DHT22;45045;45.440;9.178;2022-12-29T18:31:32;12.20;99.90
32400;DHT22;45045;45.440;9.178;2022-12-29T18:34:00;12.20;99.90
32400;DHT22;45045;45.440;9.178;2022-12-29T18:36:28;12.20;99.90
32400;DHT22;45045;45.440;9.178;2022-12-29T18:38:53;12.20;99.90
32400;DHT22;45045;45.440;9.178;2022-12-29T18:41:24;12.20;99.90
32400;DHT22;45045;45.440;9.178;2022-12-29T18:43:51;12.20;99.90
32400;DHT22;45045;45.440;9.178;2022-12-29T18:46:17;12.20;99.90
32400;DHT22;45045;45.440;9.178;2022-12-29T18:48:42;12.20;99.90
32400;DHT22;45045;45.440;9.178;2022-12-29T18:51:19;12.10;99.90
32400;DHT22;45045;45.440;9.178;2022-12-29T18:53:45;12.10;99.90
32400;DHT22;45045;45.440;9.178;2022-12-29T18:56:12;12.10;99.90
32400;DHT22;45045;45.440;9.178;2022-12-29T18:58:38;12.10;99.90
32400;DHT22;45045;45.440;9.178;2022-12-29T19:01:05;12.10;99.90
32400;DHT22;45045;45.440;9.178;2022-12-29T19:03:30;12.10;99.90
32400;DHT22;45045;45.440;9.178;2022-12-29T19:05:56;12.10;99.90
32400;DHT22;45045;45.440;9.178;2022-12-29T19:08:22;12.10;99.90
32400;DHT22;45045;45.440;9.178;2022-12-29T19:10:49;12.10;99.90
32400;DHT22;45045;45.440;9.178;2022-12-29T19:13:17;12.00;99.90
32400;DHT22;45045;45.440;9.178;2022-12-29T19:15:44;12.00;99.90
32400;DHT22;45045;45.440;9.178;2022-12-29T19:18:17;12.00;99.90
32400;DHT22;45045;45.440;9.178;2022-12-29T19:20:45;12.00;99.90
32400;DHT22;45045;45.440;9.178;2022-12-29T19:23:17;12.00;99.90
32400;DHT22;45045;45.440;9.178;2022-12-29T19:25:44;12.00;99.90
32400;DHT22;45045;45.440;9.178;2022-12-29T19:28:20;12.00;99.90
32400;DHT22;45045;45.440;9.178;2022-12-29T19:30:47;12.00;99.90
32400;DHT22;45045;45.440;9.178;2022-12-29T19:33:14;12.00;99.90
32400;DHT22;45045;45.440;9.178;2022-12-29T19:35:40;12.00;99.90
32400;DHT22;45045;45.440;9.178;2022-12-29T19:38:06;12.00;99.90
32400;DHT22;45045;45.440;9.178;2022-12-29T19:40:33;12.00;99.90
32400;DHT22;45045;45.440;9.178;2022-12-29T19:42:59;12.00;99.90
32400;DHT22;45045;45.440;9.178;2022-12-29T19:45:25;12.00;99.90
32400;DHT22;45045;45.440;9.178;2022-12-29T19:47:52;12.10;99.90
32400;DHT22;45045;45.440;9.178;2022-12-29T19:50:18;12.10;99.90
32400;DHT22;45045;45.440;9.178;2022-12-29T19:52:44;12.10;99.90